Tolland, Massachusetts
Current Conditions -  °F | °C
As of 3:53 AM on Thursday 18 Dec 2014 (Local Time) from KBAF Reporting Station
Overcast Overcast  
Wind Chill: 29°   Ceiling: 5500
Heat Index: 38°   Visibility: 10mi
Dew Point: 28°   Wind: 15mph
Humidity: 68%   Direction: 300°WNW
Pressure: 29.78"   Gusts: 24mph
Location:  42.0855°N, 72.9568°W
Report Text: KBAF 180853Z 30013G21KT 10SM FEW029 BKN055 OVC080 03/M02 A2978 RMK AO2 PK WND 29027/0800 SLP088 T00331022 53002
Loading
Personal Weather Stations






























Interactive Weather Map New forecast layout! Learn more

10-Day Weather Forecast

Advertisements
Track Severe Weather on mobile